sensor_id;sensor_type;location;lat;lon;timestamp;temperature;humidity
18882;DHT22;9573;50.948;11.600;2023-01-09T00:01:15;7.40;99.90
18882;DHT22;9573;50.948;11.600;2023-01-09T00:03:43;7.40;99.90
18882;DHT22;9573;50.948;11.600;2023-01-09T00:06:11;7.40;99.90
18882;DHT22;9573;50.948;11.600;2023-01-09T00:08:38;7.40;99.90
18882;DHT22;9573;50.948;11.600;2023-01-09T00:11:05;7.40;99.90
18882;DHT22;9573;50.948;11.600;2023-01-09T00:13:35;7.40;99.90
18882;DHT22;9573;50.948;11.600;2023-01-09T00:16:08;7.40;99.90
18882;DHT22;9573;50.948;11.600;2023-01-09T00:18:36;7.30;99.90
18882;DHT22;9573;50.948;11.600;2023-01-09T00:21:05;7.30;99.90
18882;DHT22;9573;50.948;11.600;2023-01-09T00:23:34;7.30;99.90
18882;DHT22;9573;50.948;11.600;2023-01-09T00:26:03;7.30;99.90
18882;DHT22;9573;50.948;11.600;2023-01-09T00:28:32;7.20;99.90
18882;DHT22;9573;50.948;11.600;2023-01-09T00:31:01;7.20;99.90
18882;DHT22;9573;50.948;11.600;2023-01-09T00:33:33;7.10;99.90
18882;DHT22;9573;50.948;11.600;2023-01-09T00:36:01;7.10;99.90
18882;DHT22;9573;50.948;11.600;2023-01-09T00:38:29;7.20;99.90
18882;DHT22;9573;50.948;11.600;2023-01-09T00:40:56;7.20;99.90
18882;DHT22;9573;50.948;11.600;2023-01-09T00:43:27;7.30;99.90
18882;DHT22;9573;50.948;11.600;2023-01-09T00:45:57;7.40;99.90
18882;DHT22;9573;50.948;11.600;2023-01-09T00:48:27;7.40;99.90
18882;DHT22;9573;50.948;11.600;2023-01-09T00:50:57;7.50;99.90
18882;DHT22;9573;50.948;11.600;2023-01-09T00:53:28;7.50;99.90
18882;DHT22;9573;50.948;11.600;2023-01-09T00:55:59;7.60;99.90
18882;DHT22;9573;50.948;11.600;2023-01-09T00:58:29;7.60;99.90
18882;DHT22;9573;50.948;11.600;2023-01-09T01:00:57;7.60;99.90
18882;DHT22;9573;50.948;11.600;2023-01-09T01:03:24;7.70;99.90
18882;DHT22;9573;50.948;11.600;2023-01-09T01:05:53;7.70;99.90
18882;DHT22;9573;50.948;11.600;2023-01-09T01:08:38;7.80;99.90
18882;DHT22;9573;50.948;11.600;2023-01-09T01:11:06;7.90;99.90
18882;DHT22;9573;50.948;11.600;2023-01-09T01:13:35;7.90;99.90
18882;DHT22;9573;50.948;11.600;2023-01-09T01:16:03;8.00;99.90
18882;DHT22;9573;50.948;11.600;2023-01-09T01:18:31;8.10;99.90
18882;DHT22;9573;50.948;11.600;2023-01-09T01:21:00;8.10;99.90
18882;DHT22;9573;50.948;11.600;2023-01-09T01:23:30;8.10;99.90
18882;DHT22;9573;50.948;11.600;2023-01-09T01:26:03;8.20;99.90
18882;DHT22;9573;50.948;11.600;2023-01-09T01:28:31;8.20;99.90
18882;DHT22;9573;50.948;11.600;2023-01-09T01:30:58;8.20;99.90
18882;DHT22;9573;50.948;11.600;2023-01-09T01:33:25;8.20;99.90
18882;DHT22;9573;50.948;11.600;2023-01-09T01:36:00;8.20;99.90
18882;DHT22;9573;50.948;11.600;2023-01-09T01:38:28;8.20;99.90
18882;DHT22;9573;50.948;11.600;2023-01-09T01:40:56;8.20;99.90
18882;DHT22;9573;50.948;11.600;2023-01-09T01:43:23;8.20;99.90
18882;DHT22;9573;50.948;11.600;2023-01-09T01:45:50;8.20;99.90
18882;DHT22;9573;50.948;11.600;2023-01-09T01:48:20;8.20;99.90
18882;DHT22;9573;50.948;11.600;2023-01-09T01:50:52;8.20;99.90
18882;DHT22;9573;50.948;11.600;2023-01-09T01:53:25;8.10;99.90
18882;DHT22;9573;50.948;11.600;2023-01-09T01:56:03;8.00;99.90
18882;DHT22;9573;50.948;11.600;2023-01-09T01:58:39;8.00;99.90
18882;DHT22;9573;50.948;11.600;2023-01-09T02:01:08;7.90;99.90
18882;DHT22;9573;50.948;11.600;2023-01-09T02:03:38;7.90;99.90
18882;DHT22;9573;50.948;11.600;2023-01-09T02:06:07;7.90;99.90
18882;DHT22;9573;50.948;11.600;2023-01-09T02:08:35;7.80;99.90
18882;DHT22;9573;50.948;11.600;2023-01-09T02:11:03;7.90;99.90
18882;DHT22;9573;50.948;11.600;2023-01-09T02:13:31;7.90;99.90
18882;DHT22;9573;50.948;11.600;2023-01-09T02:16:15;7.90;99.90
18882;DHT22;9573;50.948;11.600;2023-01-09T02:18:49;7.90;99.90
18882;DHT22;9573;50.948;11.600;2023-01-09T02:21:33;7.90;99.90
18882;DHT22;9573;50.948;11.600;2023-01-09T02:24:42;7.90;99.90
18882;DHT22;9573;50.948;11.600;2023-01-09T02:30:43;7.90;99.90
18882;DHT22;9573;50.948;11.600;2023-01-09T02:33:38;7.80;99.90
18882;DHT22;9573;50.948;11.600;2023-01-09T02:36:18;7.80;99.90
18882;DHT22;9573;50.948;11.600;2023-01-09T02:39:00;7.80;99.90
18882;DHT22;9573;50.948;11.600;2023-01-09T02:41:39;7.90;99.90
18882;DHT22;9573;50.948;11.600;2023-01-09T02:44:15;7.80;99.90
18882;DHT22;9573;50.948;11.600;2023-01-09T02:46:44;7.80;99.90
18882;DHT22;9573;50.948;11.600;2023-01-09T02:49:12;7.80;99.90
18882;DHT22;9573;50.948;11.600;2023-01-09T02:51:49;7.70;99.90
18882;DHT22;9573;50.948;11.600;2023-01-09T02:54:27;7.70;99.90
18882;DHT22;9573;50.948;11.600;2023-01-09T02:57:26;7.70;99.90
18882;DHT22;9573;50.948;11.600;2023-01-09T03:00:08;7.70;99.90
18882;DHT22;9573;50.948;11.600;2023-01-09T03:02:46;7.70;99.90
18882;DHT22;9573;50.948;11.600;2023-01-09T03:05:21;7.60;99.90
18882;DHT22;9573;50.948;11.600;2023-01-09T03:07:57;7.60;99.90
18882;DHT22;9573;50.948;11.600;2023-01-09T03:10:31;7.60;99.90
18882;DHT22;9573;50.948;11.600;2023-01-09T03:13:01;7.60;99.90
18882;DHT22;9573;50.948;11.600;2023-01-09T03:15:32;7.60;99.90
18882;DHT22;9573;50.948;11.600;2023-01-09T03:18:03;7.60;99.90
18882;DHT22;9573;50.948;11.600;2023-01-09T03:20:32;7.60;99.90
18882;DHT22;9573;50.948;11.600;2023-01-09T03:23:00;7.60;99.90
18882;DHT22;9573;50.948;11.600;2023-01-09T03:25:29;7.60;99.90
18882;DHT22;9573;50.948;11.600;2023-01-09T03:27:59;7.60;99.90
18882;DHT22;9573;50.948;11.600;2023-01-09T03:30:29;7.60;99.90
18882;DHT22;9573;50.948;11.600;2023-01-09T03:32:56;7.60;99.90
18882;DHT22;9573;50.948;11.600;2023-01-09T03:35:26;7.60;99.90
18882;DHT22;9573;50.948;11.600;2023-01-09T03:37:53;7.70;99.90
18882;DHT22;9573;50.948;11.600;2023-01-09T03:40:21;7.70;99.90
18882;DHT22;9573;50.948;11.600;2023-01-09T03:42:48;7.70;99.90
18882;DHT22;9573;50.948;11.600;2023-01-09T03:45:15;7.70;99.90
18882;DHT22;9573;50.948;11.600;2023-01-09T03:47:42;7.70;99.90
18882;DHT22;9573;50.948;11.600;2023-01-09T03:50:10;7.70;99.90
18882;DHT22;9573;50.948;11.600;2023-01-09T03:52:38;7.70;99.90
18882;DHT22;9573;50.948;11.600;2023-01-09T03:55:06;7.70;99.90
18882;DHT22;9573;50.948;11.600;2023-01-09T03:57:34;7.80;99.90
18882;DHT22;9573;50.948;11.600;2023-01-09T04:00:01;7.80;99.90
18882;DHT22;9573;50.948;11.600;2023-01-09T04:02:29;7.80;99.90
18882;DHT22;9573;50.948;11.600;2023-01-09T04:04:56;7.80;99.90
18882;DHT22;9573;50.948;11.600;2023-01-09T04:07:23;7.80;99.90
18882;DHT22;9573;50.948;11.600;2023-01-09T04:09:51;7.80;99.90
18882;DHT22;9573;50.948;11.600;2023-01-09T04:12:18;7.80;99.90
18882;DHT22;9573;50.948;11.600;2023-01-09T04:14:45;7.80;99.90
18882;DHT22;9573;50.948;11.600;2023-01-09T04:17:12;7.80;99.90
18882;DHT22;9573;50.948;11.600;2023-01-09T04:19:41;7.90;99.90
18882;DHT22;9573;50.948;11.600;2023-01-09T04:22:08;7.90;99.90
18882;DHT22;9573;50.948;11.600;2023-01-09T04:24:35;7.90;99.90
18882;DHT22;9573;50.948;11.600;2023-01-09T04:27:03;7.90;99.90
18882;DHT22;9573;50.948;11.600;2023-01-09T04:29:30;7.90;99.90
18882;DHT22;9573;50.948;11.600;2023-01-09T04:31:57;7.90;99.90
18882;DHT22;9573;50.948;11.600;2023-01-09T04:34:24;7.90;99.90
18882;DHT22;9573;50.948;11.600;2023-01-09T04:36:52;7.90;99.90
18882;DHT22;9573;50.948;11.600;2023-01-09T04:39:20;7.90;99.90
18882;DHT22;9573;50.948;11.600;2023-01-09T04:41:48;7.80;99.90
18882;DHT22;9573;50.948;11.600;2023-01-09T04:44:17;7.70;99.90
18882;DHT22;9573;50.948;11.600;2023-01-09T04:46:45;7.70;99.90
18882;DHT22;9573;50.948;11.600;2023-01-09T04:49:13;7.60;99.90
18882;DHT22;9573;50.948;11.600;2023-01-09T04:51:40;7.50;99.90
18882;DHT22;9573;50.948;11.600;2023-01-09T04:54:07;7.50;99.90
18882;DHT22;9573;50.948;11.600;2023-01-09T04:56:34;7.50;99.90
18882;DHT22;9573;50.948;11.600;2023-01-09T04:59:02;7.50;99.90
18882;DHT22;9573;50.948;11.600;2023-01-09T05:01:32;7.50;99.90
18882;DHT22;9573;50.948;11.600;2023-01-09T05:04:00;7.60;99.90
18882;DHT22;9573;50.948;11.600;2023-01-09T05:06:27;7.60;99.90
18882;DHT22;9573;50.948;11.600;2023-01-09T05:08:55;7.70;99.90
18882;DHT22;9573;50.948;11.600;2023-01-09T05:11:22;7.80;99.90
18882;DHT22;9573;50.948;11.600;2023-01-09T05:13:50;7.80;99.90
18882;DHT22;9573;50.948;11.600;2023-01-09T05:16:17;7.90;99.90
18882;DHT22;9573;50.948;11.600;2023-01-09T05:18:46;7.90;99.90
18882;DHT22;9573;50.948;11.600;2023-01-09T05:21:13;8.00;99.90
18882;DHT22;9573;50.948;11.600;2023-01-09T05:23:41;8.10;99.90
18882;DHT22;9573;50.948;11.600;2023-01-09T05:26:08;8.10;99.90
18882;DHT22;9573;50.948;11.600;2023-01-09T05:28:36;8.10;99.90
18882;DHT22;9573;50.948;11.600;2023-01-09T05:31:03;8.10;99.90
18882;DHT22;9573;50.948;11.600;2023-01-09T05:33:31;8.00;99.90
18882;DHT22;9573;50.948;11.600;2023-01-09T05:35:59;7.80;99.90
18882;DHT22;9573;50.948;11.600;2023-01-09T05:38:26;7.70;99.90
18882;DHT22;9573;50.948;11.600;2023-01-09T05:40:53;7.60;99.90
18882;DHT22;9573;50.948;11.600;2023-01-09T05:43:20;7.60;99.90
18882;DHT22;9573;50.948;11.600;2023-01-09T05:45:47;7.70;99.90
18882;DHT22;9573;50.948;11.600;2023-01-09T05:48:14;7.70;99.90
18882;DHT22;9573;50.948;11.600;2023-01-09T05:50:42;7.90;99.90
18882;DHT22;9573;50.948;11.600;2023-01-09T05:53:10;8.00;99.90
18882;DHT22;9573;50.948;11.600;2023-01-09T05:55:37;8.00;99.90
18882;DHT22;9573;50.948;11.600;2023-01-09T05:58:04;8.10;99.90
18882;DHT22;9573;50.948;11.600;2023-01-09T06:00:32;8.10;99.90
18882;DHT22;9573;50.948;11.600;2023-01-09T06:02:59;8.20;99.90
18882;DHT22;9573;50.948;11.600;2023-01-09T06:05:26;8.20;99.90
18882;DHT22;9573;50.948;11.600;2023-01-09T06:07:53;8.20;99.90
18882;DHT22;9573;50.948;11.600;2023-01-09T06:10:22;8.20;99.90
18882;DHT22;9573;50.948;11.600;2023-01-09T06:12:50;8.10;99.90
18882;DHT22;9573;50.948;11.600;2023-01-09T06:15:19;8.20;99.90
18882;DHT22;9573;50.948;11.600;2023-01-09T06:17:47;8.20;99.90
18882;DHT22;9573;50.948;11.600;2023-01-09T06:20:14;8.30;99.90
18882;DHT22;9573;50.948;11.600;2023-01-09T06:22:41;8.40;99.90
18882;DHT22;9573;50.948;11.600;2023-01-09T06:25:10;8.50;99.90
18882;DHT22;9573;50.948;11.600;2023-01-09T06:27:39;8.50;99.90
18882;DHT22;9573;50.948;11.600;2023-01-09T06:30:07;8.50;99.90
18882;DHT22;9573;50.948;11.600;2023-01-09T06:32:35;8.60;99.90
18882;DHT22;9573;50.948;11.600;2023-01-09T06:35:03;8.60;99.90
18882;DHT22;9573;50.948;11.600;2023-01-09T06:37:31;8.70;99.90
18882;DHT22;9573;50.948;11.600;2023-01-09T06:39:58;7.00;99.90
18882;DHT22;9573;50.948;11.600;2023-01-09T06:42:26;8.80;99.90
18882;DHT22;9573;50.948;11.600;2023-01-09T06:44:54;8.80;99.90
18882;DHT22;9573;50.948;11.600;2023-01-09T06:47:22;8.90;99.90
18882;DHT22;9573;50.948;11.600;2023-01-09T06:49:49;8.90;99.90
18882;DHT22;9573;50.948;11.600;2023-01-09T06:52:17;8.90;99.90
18882;DHT22;9573;50.948;11.600;2023-01-09T06:54:44;8.90;99.90
18882;DHT22;9573;50.948;11.600;2023-01-09T06:57:11;9.00;99.90
18882;DHT22;9573;50.948;11.600;2023-01-09T06:59:41;9.00;99.90
18882;DHT22;9573;50.948;11.600;2023-01-09T07:02:16;9.10;99.90
18882;DHT22;9573;50.948;11.600;2023-01-09T07:04:44;9.10;99.90
18882;DHT22;9573;50.948;11.600;2023-01-09T07:07:12;9.10;99.90
18882;DHT22;9573;50.948;11.600;2023-01-09T07:09:40;9.10;99.90
18882;DHT22;9573;50.948;11.600;2023-01-09T07:12:07;9.00;99.90
18882;DHT22;9573;50.948;11.600;2023-01-09T07:14:34;9.00;99.90
18882;DHT22;9573;50.948;11.600;2023-01-09T07:17:02;8.90;99.90
18882;DHT22;9573;50.948;11.600;2023-01-09T07:19:31;8.90;99.90
18882;DHT22;9573;50.948;11.600;2023-01-09T07:21:58;9.00;99.90
18882;DHT22;9573;50.948;11.600;2023-01-09T07:24:26;9.00;99.90
18882;DHT22;9573;50.948;11.600;2023-01-09T07:26:53;9.00;99.90
18882;DHT22;9573;50.948;11.600;2023-01-09T07:29:20;9.10;99.90
18882;DHT22;9573;50.948;11.600;2023-01-09T07:31:47;9.10;99.90
18882;DHT22;9573;50.948;11.600;2023-01-09T07:34:14;9.20;99.90
18882;DHT22;9573;50.948;11.600;2023-01-09T07:36:42;9.30;99.90
18882;DHT22;9573;50.948;11.600;2023-01-09T07:39:11;9.30;99.90
18882;DHT22;9573;50.948;11.600;2023-01-09T07:41:38;9.30;99.90
18882;DHT22;9573;50.948;11.600;2023-01-09T07:44:05;9.30;99.90
18882;DHT22;9573;50.948;11.600;2023-01-09T07:46:33;9.20;99.90
18882;DHT22;9573;50.948;11.600;2023-01-09T07:49:00;9.30;99.90
18882;DHT22;9573;50.948;11.600;2023-01-09T07:51:27;9.30;99.90
18882;DHT22;9573;50.948;11.600;2023-01-09T07:53:55;9.30;99.90
18882;DHT22;9573;50.948;11.600;2023-01-09T07:56:22;9.30;99.90
18882;DHT22;9573;50.948;11.600;2023-01-09T07:58:49;9.20;99.90
18882;DHT22;9573;50.948;11.600;2023-01-09T08:01:17;9.20;99.90
18882;DHT22;9573;50.948;11.600;2023-01-09T08:03:44;8.60;99.90
18882;DHT22;9573;50.948;11.600;2023-01-09T08:06:11;9.20;99.90
18882;DHT22;9573;50.948;11.600;2023-01-09T08:08:38;9.30;99.90
18882;DHT22;9573;50.948;11.600;2023-01-09T08:11:07;9.30;99.90
18882;DHT22;9573;50.948;11.600;2023-01-09T08:13:34;9.30;99.90
18882;DHT22;9573;50.948;11.600;2023-01-09T08:16:01;9.40;99.90
18882;DHT22;9573;50.948;11.600;2023-01-09T08:18:28;9.50;99.90
18882;DHT22;9573;50.948;11.600;2023-01-09T08:20:55;9.50;99.90
18882;DHT22;9573;50.948;11.600;2023-01-09T08:23:22;9.70;99.90
18882;DHT22;9573;50.948;11.600;2023-01-09T08:25:49;10.00;99.90
18882;DHT22;9573;50.948;11.600;2023-01-09T08:28:19;10.20;99.90
18882;DHT22;9573;50.948;11.600;2023-01-09T08:30:46;10.30;99.90
18882;DHT22;9573;50.948;11.600;2023-01-09T08:33:13;10.40;99.90
18882;DHT22;9573;50.948;11.600;2023-01-09T08:35:41;10.70;99.90
18882;DHT22;9573;50.948;11.600;2023-01-09T08:38:09;10.90;99.90
18882;DHT22;9573;50.948;11.600;2023-01-09T08:40:37;11.20;99.90
18882;DHT22;9573;50.948;11.600;2023-01-09T08:43:04;11.20;99.90
18882;DHT22;9573;50.948;11.600;2023-01-09T08:45:50;11.30;99.90
18882;DHT22;9573;50.948;11.600;2023-01-09T08:48:43;11.30;99.90
18882;DHT22;9573;50.948;11.600;2023-01-09T08:51:11;11.40;99.90
18882;DHT22;9573;50.948;11.600;2023-01-09T08:53:38;11.60;99.90
18882;DHT22;9573;50.948;11.600;2023-01-09T08:56:05;11.70;99.90
18882;DHT22;9573;50.948;11.600;2023-01-09T08:58:33;12.20;99.90
18882;DHT22;9573;50.948;11.600;2023-01-09T09:01:04;12.80;99.90
18882;DHT22;9573;50.948;11.600;2023-01-09T09:03:35;13.00;99.90
18882;DHT22;9573;50.948;11.600;2023-01-09T09:06:02;13.00;99.90
18882;DHT22;9573;50.948;11.600;2023-01-09T09:08:31;12.80;99.90
18882;DHT22;9573;50.948;11.600;2023-01-09T09:10:58;12.70;99.90
18882;DHT22;9573;50.948;11.600;2023-01-09T09:13:25;12.50;99.90
18882;DHT22;9573;50.948;11.600;2023-01-09T09:15:52;12.40;99.90
18882;DHT22;9573;50.948;11.600;2023-01-09T09:18:21;12.30;99.90
18882;DHT22;9573;50.948;11.600;2023-01-09T09:20:48;12.30;99.90
18882;DHT22;9573;50.948;11.600;2023-01-09T09:23:15;12.20;99.90
18882;DHT22;9573;50.948;11.600;2023-01-09T09:25:42;12.10;99.90
18882;DHT22;9573;50.948;11.600;2023-01-09T09:28:09;11.80;99.90
18882;DHT22;9573;50.948;11.600;2023-01-09T09:30:38;11.70;99.90
18882;DHT22;9573;50.948;11.600;2023-01-09T09:33:05;11.50;99.90
18882;DHT22;9573;50.948;11.600;2023-01-09T09:35:34;11.30;99.90
18882;DHT22;9573;50.948;11.600;2023-01-09T09:38:02;11.20;99.90
18882;DHT22;9573;50.948;11.600;2023-01-09T09:40:50;11.00;99.90
18882;DHT22;9573;50.948;11.600;2023-01-09T09:44:13;10.90;99.90
18882;DHT22;9573;50.948;11.600;2023-01-09T09:47:14;11.00;99.90
18882;DHT22;9573;50.948;11.600;2023-01-09T09:50:09;11.20;99.90
18882;DHT22;9573;50.948;11.600;2023-01-09T09:52:51;11.20;99.90
18882;DHT22;9573;50.948;11.600;2023-01-09T09:55:26;11.20;99.90
18882;DHT22;9573;50.948;11.600;2023-01-09T09:57:59;11.20;99.90
18882;DHT22;9573;50.948;11.600;2023-01-09T10:00:28;11.20;99.90
18882;DHT22;9573;50.948;11.600;2023-01-09T10:02:59;11.30;99.90
18882;DHT22;9573;50.948;11.600;2023-01-09T10:05:30;11.40;99.90
18882;DHT22;9573;50.948;11.600;2023-01-09T10:08:04;11.70;99.90
18882;DHT22;9573;50.948;11.600;2023-01-09T10:10:37;12.20;99.90
18882;DHT22;9573;50.948;11.600;2023-01-09T10:13:11;12.80;99.90
18882;DHT22;9573;50.948;11.600;2023-01-09T10:16:03;12.60;99.90
18882;DHT22;9573;50.948;11.600;2023-01-09T10:18:43;12.30;99.90
18882;DHT22;9573;50.948;11.600;2023-01-09T10:21:16;12.00;99.90
18882;DHT22;9573;50.948;11.600;2023-01-09T10:24:10;11.70;99.90
18882;DHT22;9573;50.948;11.600;2023-01-09T10:26:46;11.60;99.90
18882;DHT22;9573;50.948;11.600;2023-01-09T10:29:25;11.50;99.90
18882;DHT22;9573;50.948;11.600;2023-01-09T10:32:12;11.40;99.90
18882;DHT22;9573;50.948;11.600;2023-01-09T10:34:58;11.20;99.90
18882;DHT22;9573;50.948;11.600;2023-01-09T10:37:35;11.10;99.90
18882;DHT22;9573;50.948;11.600;2023-01-09T10:40:11;11.20;99.90
18882;DHT22;9573;50.948;11.600;2023-01-09T10:42:44;12.00;99.90
18882;DHT22;9573;50.948;11.600;2023-01-09T10:45:18;13.40;99.90
18882;DHT22;9573;50.948;11.600;2023-01-09T10:47:47;14.30;99.90
18882;DHT22;9573;50.948;11.600;2023-01-09T10:50:18;14.80;99.90
18882;DHT22;9573;50.948;11.600;2023-01-09T10:52:49;14.60;99.90
18882;DHT22;9573;50.948;11.600;2023-01-09T10:55:26;14.00;99.90
18882;DHT22;9573;50.948;11.600;2023-01-09T10:58:01;13.50;99.90
18882;DHT22;9573;50.948;11.600;2023-01-09T11:00:28;13.20;99.90
18882;DHT22;9573;50.948;11.600;2023-01-09T11:02:57;12.90;99.90
18882;DHT22;9573;50.948;11.600;2023-01-09T11:05:26;12.40;99.90
18882;DHT22;9573;50.948;11.600;2023-01-09T11:07:58;12.20;99.90
18882;DHT22;9573;50.948;11.600;2023-01-09T11:10:45;12.00;99.90
18882;DHT22;9573;50.948;11.600;2023-01-09T11:13:18;12.40;99.90
18882;DHT22;9573;50.948;11.600;2023-01-09T11:16:04;12.30;99.90
18882;DHT22;9573;50.948;11.600;2023-01-09T11:18:48;12.10;99.90
18882;DHT22;9573;50.948;11.600;2023-01-09T11:21:29;12.00;99.90
18882;DHT22;9573;50.948;11.600;2023-01-09T11:24:27;13.50;99.90
18882;DHT22;9573;50.948;11.600;2023-01-09T11:27:18;16.10;99.90
18882;DHT22;9573;50.948;11.600;2023-01-09T11:30:17;17.40;99.90
18882;DHT22;9573;50.948;11.600;2023-01-09T11:32:48;18.70;99.90
18882;DHT22;9573;50.948;11.600;2023-01-09T11:35:24;20.10;99.90
18882;DHT22;9573;50.948;11.600;2023-01-09T11:38:01;20.10;99.90
18882;DHT22;9573;50.948;11.600;2023-01-09T11:40:47;20.60;97.90
18882;DHT22;9573;50.948;11.600;2023-01-09T11:43:21;20.50;96.20
18882;DHT22;9573;50.948;11.600;2023-01-09T11:45:59;20.60;94.80
18882;DHT22;9573;50.948;11.600;2023-01-09T11:48:37;20.30;94.20
18882;DHT22;9573;50.948;11.600;2023-01-09T11:51:18;19.60;94.20
18882;DHT22;9573;50.948;11.600;2023-01-09T11:54:01;18.30;95.70
18882;DHT22;9573;50.948;11.600;2023-01-09T11:56:35;16.80;98.00
18882;DHT22;9573;50.948;11.600;2023-01-09T11:59:10;15.60;99.90
18882;DHT22;9573;50.948;11.600;2023-01-09T12:02:12;15.50;99.90
18882;DHT22;9573;50.948;11.600;2023-01-09T12:04:59;15.90;99.90
18882;DHT22;9573;50.948;11.600;2023-01-09T12:07:46;15.50;99.90
18882;DHT22;9573;50.948;11.600;2023-01-09T12:10:57;14.70;99.90
18882;DHT22;9573;50.948;11.600;2023-01-09T12:14:10;14.00;99.90
18882;DHT22;9573;50.948;11.600;2023-01-09T12:16:56;13.40;99.90
18882;DHT22;9573;50.948;11.600;2023-01-09T12:19:48;12.90;99.90
18882;DHT22;9573;50.948;11.600;2023-01-09T12:22:32;12.50;99.90
18882;DHT22;9573;50.948;11.600;2023-01-09T12:25:17;12.10;99.90
18882;DHT22;9573;50.948;11.600;2023-01-09T12:28:07;12.00;99.90
18882;DHT22;9573;50.948;11.600;2023-01-09T12:30:51;11.80;99.90
18882;DHT22;9573;50.948;11.600;2023-01-09T12:33:34;11.70;99.90
18882;DHT22;9573;50.948;11.600;2023-01-09T12:36:12;11.50;99.90
18882;DHT22;9573;50.948;11.600;2023-01-09T12:38:47;11.40;99.90
18882;DHT22;9573;50.948;11.600;2023-01-09T12:41:51;11.30;99.90
18882;DHT22;9573;50.948;11.600;2023-01-09T12:44:39;11.10;99.90
18882;DHT22;9573;50.948;11.600;2023-01-09T12:47:40;11.00;99.90
18882;DHT22;9573;50.948;11.600;2023-01-09T12:50:33;10.90;99.90
18882;DHT22;9573;50.948;11.600;2023-01-09T12:53:25;10.70;99.90
18882;DHT22;9573;50.948;11.600;2023-01-09T12:56:01;10.70;99.90
18882;DHT22;9573;50.948;11.600;2023-01-09T12:58:35;10.70;99.90
18882;DHT22;9573;50.948;11.600;2023-01-09T13:01:12;10.60;99.90
18882;DHT22;9573;50.948;11.600;2023-01-09T13:03:46;10.60;99.90
18882;DHT22;9573;50.948;11.600;2023-01-09T13:06:18;10.50;99.90
18882;DHT22;9573;50.948;11.600;2023-01-09T13:08:50;10.50;99.90
18882;DHT22;9573;50.948;11.600;2023-01-09T13:11:24;10.60;99.90
18882;DHT22;9573;50.948;11.600;2023-01-09T13:13:56;10.60;99.90
18882;DHT22;9573;50.948;11.600;2023-01-09T13:16:30;10.60;99.90
18882;DHT22;9573;50.948;11.600;2023-01-09T13:19:06;10.70;99.90
18882;DHT22;9573;50.948;11.600;2023-01-09T13:21:38;10.60;99.90
18882;DHT22;9573;50.948;11.600;2023-01-09T13:24:13;10.80;99.90
18882;DHT22;9573;50.948;11.600;2023-01-09T13:26:45;11.00;99.90
18882;DHT22;9573;50.948;11.600;2023-01-09T13:29:17;11.20;99.90
18882;DHT22;9573;50.948;11.600;2023-01-09T13:32:21;11.40;99.90
18882;DHT22;9573;50.948;11.600;2023-01-09T13:34:58;11.90;99.90
18882;DHT22;9573;50.948;11.600;2023-01-09T13:37:28;12.10;99.90
18882;DHT22;9573;50.948;11.600;2023-01-09T13:39:57;11.90;99.90
18882;DHT22;9573;50.948;11.600;2023-01-09T13:42:26;11.80;99.90
18882;DHT22;9573;50.948;11.600;2023-01-09T13:45:11;11.50;99.90
18882;DHT22;9573;50.948;11.600;2023-01-09T13:47:46;11.20;99.90
18882;DHT22;9573;50.948;11.600;2023-01-09T13:50:25;10.80;99.90
18882;DHT22;9573;50.948;11.600;2023-01-09T13:52:52;10.60;99.90
18882;DHT22;9573;50.948;11.600;2023-01-09T13:55:30;10.50;99.90
18882;DHT22;9573;50.948;11.600;2023-01-09T13:58:20;10.40;99.90
18882;DHT22;9573;50.948;11.600;2023-01-09T14:00:56;10.40;99.90
18882;DHT22;9573;50.948;11.600;2023-01-09T14:03:30;10.40;99.90
18882;DHT22;9573;50.948;11.600;2023-01-09T14:06:14;10.40;99.90
18882;DHT22;9573;50.948;11.600;2023-01-09T14:08:44;10.40;99.90
18882;DHT22;9573;50.948;11.600;2023-01-09T14:11:21;10.30;99.90
18882;DHT22;9573;50.948;11.600;2023-01-09T14:14:00;10.20;99.90
18882;DHT22;9573;50.948;11.600;2023-01-09T14:16:29;10.00;99.90
18882;DHT22;9573;50.948;11.600;2023-01-09T14:19:03;9.90;99.90
18882;DHT22;9573;50.948;11.600;2023-01-09T14:21:50;9.80;99.90
18882;DHT22;9573;50.948;11.600;2023-01-09T14:24:24;9.90;99.90
18882;DHT22;9573;50.948;11.600;2023-01-09T14:26:54;9.90;99.90
18882;DHT22;9573;50.948;11.600;2023-01-09T14:29:44;9.90;99.90
18882;DHT22;9573;50.948;11.600;2023-01-09T14:32:41;9.70;99.90
18882;DHT22;9573;50.948;11.600;2023-01-09T14:35:21;9.70;99.90
18882;DHT22;9573;50.948;11.600;2023-01-09T14:38:02;9.60;99.90
18882;DHT22;9573;50.948;11.600;2023-01-09T14:40:33;9.60;99.90
18882;DHT22;9573;50.948;11.600;2023-01-09T14:43:11;9.50;99.90
18882;DHT22;9573;50.948;11.600;2023-01-09T14:45:45;9.40;99.90
18882;DHT22;9573;50.948;11.600;2023-01-09T14:48:13;9.30;99.90
18882;DHT22;9573;50.948;11.600;2023-01-09T14:50:46;9.20;99.90
18882;DHT22;9573;50.948;11.600;2023-01-09T14:53:19;8.90;99.90
18882;DHT22;9573;50.948;11.600;2023-01-09T14:55:51;8.80;99.90
18882;DHT22;9573;50.948;11.600;2023-01-09T14:58:23;8.60;99.90
18882;DHT22;9573;50.948;11.600;2023-01-09T15:00:56;8.40;99.90
18882;DHT22;9573;50.948;11.600;2023-01-09T15:03:30;8.40;99.90
18882;DHT22;9573;50.948;11.600;2023-01-09T15:05:59;8.20;99.90
18882;DHT22;9573;50.948;11.600;2023-01-09T15:08:28;8.20;99.90
18882;DHT22;9573;50.948;11.600;2023-01-09T15:10:57;8.30;99.90
18882;DHT22;9573;50.948;11.600;2023-01-09T15:13:31;8.30;99.90
18882;DHT22;9573;50.948;11.600;2023-01-09T15:16:03;8.40;99.90
18882;DHT22;9573;50.948;11.600;2023-01-09T15:18:34;8.40;99.90
18882;DHT22;9573;50.948;11.600;2023-01-09T15:21:11;8.40;99.90
18882;DHT22;9573;50.948;11.600;2023-01-09T15:23:42;8.40;99.90
18882;DHT22;9573;50.948;11.600;2023-01-09T15:26:21;8.40;99.90
18882;DHT22;9573;50.948;11.600;2023-01-09T15:28:51;8.50;99.90
18882;DHT22;9573;50.948;11.600;2023-01-09T15:31:22;8.50;99.90
18882;DHT22;9573;50.948;11.600;2023-01-09T15:33:49;8.60;99.90
18882;DHT22;9573;50.948;11.600;2023-01-09T15:36:19;8.50;99.90
18882;DHT22;9573;50.948;11.600;2023-01-09T15:38:50;8.40;99.90
18882;DHT22;9573;50.948;11.600;2023-01-09T15:41:23;8.30;99.90
18882;DHT22;9573;50.948;11.600;2023-01-09T15:44:12;8.10;99.90
18882;DHT22;9573;50.948;11.600;2023-01-09T15:46:42;8.70;99.90
18882;DHT22;9573;50.948;11.600;2023-01-09T15:49:11;7.80;99.90
18882;DHT22;9573;50.948;11.600;2023-01-09T15:51:40;7.70;99.90
18882;DHT22;9573;50.948;11.600;2023-01-09T15:54:12;7.50;99.90
18882;DHT22;9573;50.948;11.600;2023-01-09T15:56:40;7.40;99.90
18882;DHT22;9573;50.948;11.600;2023-01-09T15:59:22;7.30;99.90
18882;DHT22;9573;50.948;11.600;2023-01-09T16:01:56;7.20;99.90
18882;DHT22;9573;50.948;11.600;2023-01-09T16:04:39;7.10;99.90
18882;DHT22;9573;50.948;11.600;2023-01-09T16:07:12;7.00;99.90
18882;DHT22;9573;50.948;11.600;2023-01-09T16:09:44;6.90;99.90
18882;DHT22;9573;50.948;11.600;2023-01-09T16:12:17;6.90;99.90
18882;DHT22;9573;50.948;11.600;2023-01-09T16:14:50;6.80;99.90
18882;DHT22;9573;50.948;11.600;2023-01-09T16:17:20;6.80;99.90
18882;DHT22;9573;50.948;11.600;2023-01-09T16:19:52;6.80;99.90